createdAt,value
2023-04-04T00:01:35.542Z,99.90
2023-04-04T00:04:03.575Z,99.90
2023-04-04T00:06:31.341Z,99.90
2023-04-04T00:08:59.002Z,99.90
2023-04-04T00:11:27.211Z,99.90
2023-04-04T00:13:55.370Z,99.90
2023-04-04T00:16:23.335Z,99.90
2023-04-04T00:18:51.119Z,99.90
2023-04-04T00:21:18.674Z,99.90
2023-04-04T00:23:46.788Z,99.90
2023-04-04T02:26:27.216Z,99.90
2023-04-04T02:28:55.175Z,99.90
2023-04-04T02:31:23.581Z,99.90
2023-04-04T02:33:51.670Z,99.90
2023-04-04T02:36:21.318Z,99.90
2023-04-04T02:38:51.362Z,99.90
2023-04-04T02:41:20.950Z,99.90
2023-04-04T02:43:48.550Z,99.90
2023-04-04T02:46:21.768Z,99.90
2023-04-04T02:48:55.475Z,99.90
2023-04-04T02:51:23.369Z,99.90
2023-04-04T02:53:51.114Z,99.90
2023-04-04T02:56:27.562Z,99.90
2023-04-04T02:58:55.352Z,99.90
2023-04-04T03:01:22.937Z,99.90
2023-04-04T03:03:50.793Z,99.90
2023-04-04T03:06:18.631Z,99.90
2023-04-04T03:08:49.538Z,99.90
2023-04-04T03:11:18.759Z,99.90
2023-04-04T03:13:48.414Z,99.90
2023-04-04T03:16:17.903Z,99.90
2023-04-04T03:18:49.984Z,99.90
2023-04-04T03:21:21.035Z,99.90
2023-04-04T03:23:48.668Z,99.90
2023-04-04T03:26:16.209Z,99.90
2023-04-04T03:31:13.595Z,99.90
2023-04-04T03:36:14.082Z,99.90
2023-04-04T03:41:11.214Z,99.90
2023-04-04T03:43:38.983Z,99.90
2023-04-04T03:48:35.380Z,99.90
2023-04-04T03:51:06.594Z,99.90
2023-04-04T03:53:36.573Z,99.90
2023-04-04T03:56:04.541Z,99.90
2023-04-04T03:58:32.353Z,99.90
2023-04-04T04:03:31.369Z,99.90
2023-04-04T04:06:00.016Z,99.90
2023-04-04T04:15:54.964Z,99.90
2023-04-04T04:20:59.358Z,99.90
2023-04-04T04:23:27.534Z,99.90
2023-04-04T04:25:55.136Z,99.90
2023-04-04T04:28:24.753Z,99.90
2023-04-04T04:31:07.909Z,99.90
2023-04-04T04:36:10.767Z,99.90
2023-04-04T04:38:48.336Z,99.90
2023-04-04T04:41:17.264Z,99.90
2023-04-04T04:46:17.210Z,99.90
2023-04-04T04:48:45.214Z,99.90
2023-04-04T04:51:15.313Z,99.90
2023-04-04T04:58:54.368Z,99.90
2023-04-04T05:01:25.999Z,99.90
2023-04-04T05:11:32.301Z,99.90
2023-04-04T05:14:01.931Z,99.90
2023-04-04T05:16:33.653Z,99.90
2023-04-04T05:19:02.417Z,99.90
2023-04-04T05:21:33.858Z,99.90
2023-04-04T05:29:00.849Z,99.90
2023-04-04T05:34:08.004Z,99.90
2023-04-04T05:36:36.624Z,99.90
2023-04-04T05:41:40.380Z,99.90
2023-04-04T05:44:14.387Z,99.90
2023-04-04T05:46:43.047Z,99.90
2023-04-04T05:49:11.269Z,99.90
2023-04-04T05:51:43.353Z,99.90
2023-04-04T05:56:45.192Z,99.90
2023-04-04T05:59:20.431Z,99.90
2023-04-04T06:04:31.022Z,99.90
2023-04-04T06:07:01.364Z,99.90
2023-04-04T06:09:29.496Z,99.90
2023-04-04T06:11:57.482Z,99.90
2023-04-04T06:16:53.207Z,99.90
2023-04-04T06:19:21.918Z,99.90
2023-04-04T06:24:17.586Z,99.90
2023-04-04T06:31:43.623Z,99.90
2023-04-04T06:34:17.827Z,99.90
2023-04-04T06:36:53.204Z,99.90
2023-04-04T06:39:22.755Z,99.90
2023-04-04T06:41:54.208Z,99.90
2023-04-04T06:46:55.400Z,99.90
2023-04-04T06:49:23.039Z,99.90
2023-04-04T06:51:50.970Z,99.90
2023-04-04T06:54:18.956Z,99.90
2023-04-04T06:59:15.453Z,99.90
2023-04-04T07:01:43.075Z,99.90
2023-04-04T07:04:10.778Z,99.90
2023-04-04T07:06:38.322Z,99.90
2023-04-04T07:09:07.125Z,99.90
2023-04-04T07:11:36.692Z,99.90
2023-04-04T07:14:04.449Z,99.90
2023-04-04T07:16:32.167Z,99.90
2023-04-04T07:18:59.717Z,99.90
2023-04-04T07:23:56.243Z,99.90
2023-04-04T07:26:23.904Z,99.90
2023-04-04T07:28:51.576Z,99.90
2023-04-04T07:31:19.457Z,99.90
2023-04-04T07:33:47.008Z,99.90
2023-04-04T07:36:15.001Z,99.90
2023-04-04T07:38:43.505Z,99.90
2023-04-04T07:41:11.755Z,99.90
2023-04-04T07:43:39.443Z,99.90
2023-04-04T07:46:07.237Z,99.90
2023-04-04T07:48:35.593Z,99.90
2023-04-04T07:51:04.795Z,99.90
2023-04-04T07:53:32.979Z,99.90
2023-04-04T07:56:06.675Z,99.90
2023-04-04T07:58:35.537Z,99.90
2023-04-04T08:01:04.085Z,99.90
2023-04-04T08:03:31.934Z,99.90
2023-04-04T08:06:00.140Z,99.90
2023-04-04T08:08:27.954Z,99.90
2023-04-04T08:10:55.898Z,99.90
2023-04-04T08:13:23.748Z,99.90
2023-04-04T08:15:51.651Z,99.90
2023-04-04T08:18:19.294Z,99.90
2023-04-04T08:20:47.326Z,99.90
2023-04-04T08:23:15.362Z,99.90
2023-04-04T08:25:45.974Z,99.90
2023-04-04T08:28:13.962Z,99.90
2023-04-04T08:30:42.009Z,99.90
2023-04-04T08:33:10.292Z,99.90
2023-04-04T08:35:38.130Z,99.90
2023-04-04T08:38:08.505Z,99.90
2023-04-04T08:40:36.353Z,99.90
2023-04-04T08:43:05.644Z,99.90
2023-04-04T08:45:34.971Z,99.90
2023-04-04T08:48:05.008Z,99.90
2023-04-04T08:50:33.924Z,99.90
2023-04-04T08:53:04.840Z,99.90
2023-04-04T08:55:33.010Z,99.90
2023-04-04T08:58:00.662Z,99.90
2023-04-04T09:00:28.539Z,99.90
2023-04-04T09:03:06.490Z,99.90
2023-04-04T09:05:34.589Z,99.90
2023-04-04T09:08:05.069Z,99.90
2023-04-04T09:10:33.096Z,99.90
2023-04-04T09:13:14.477Z,99.90
2023-04-04T09:15:47.736Z,99.90
2023-04-04T09:18:16.469Z,97.70
2023-04-04T09:20:48.102Z,98.20
2023-04-04T09:23:18.543Z,96.60
2023-04-04T09:26:04.124Z,96.30
2023-04-04T09:28:33.291Z,93.80
2023-04-04T09:31:04.902Z,94.40
2023-04-04T09:33:34.600Z,92.60
2023-04-04T09:36:07.236Z,93.00
2023-04-04T09:38:39.682Z,89.20
2023-04-04T09:41:11.815Z,90.00
2023-04-04T09:43:40.253Z,90.00
2023-04-04T09:46:08.179Z,85.60
2023-04-04T09:48:37.560Z,81.70
2023-04-04T09:51:07.103Z,76.90
2023-04-04T09:53:37.127Z,77.40
2023-04-04T09:56:06.228Z,74.10
2023-04-04T09:58:37.254Z,69.90
2023-04-04T10:01:12.583Z,71.20
2023-04-04T10:03:40.559Z,68.40
2023-04-04T10:06:12.295Z,64.60
2023-04-04T10:08:40.854Z,63.40
2023-04-04T10:11:11.477Z,65.20
2023-04-04T10:13:41.698Z,65.50
2023-04-04T10:16:10.764Z,64.20
2023-04-04T10:18:39.417Z,59.00
2023-04-04T10:23:41.635Z,58.20
2023-04-04T10:26:10.013Z,59.00
2023-04-04T10:28:37.815Z,57.50
2023-04-04T10:31:25.779Z,58.20
2023-04-04T10:34:22.350Z,57.30
2023-04-04T10:36:58.021Z,55.30
2023-04-04T10:39:46.032Z,54.10
2023-04-04T10:42:16.848Z,54.40
2023-04-04T10:44:46.078Z,54.00
2023-04-04T10:47:16.697Z,53.50
2023-04-04T10:49:45.733Z,51.60
2023-04-04T10:52:15.964Z,51.30
2023-04-04T10:54:44.854Z,52.10
2023-04-04T10:57:14.256Z,50.80
2023-04-04T10:59:58.964Z,49.50
2023-04-04T11:02:58.495Z,49.60
2023-04-04T11:05:47.094Z,49.30
2023-04-04T11:08:20.698Z,47.50
2023-04-04T11:10:50.131Z,48.20
2023-04-04T11:13:22.460Z,48.20
2023-04-04T11:16:00.930Z,47.80
2023-04-04T11:18:41.664Z,46.50
2023-04-04T11:21:18.481Z,47.40
2023-04-04T11:23:49.075Z,47.80
2023-04-04T11:26:37.335Z,46.60
2023-04-04T11:29:08.693Z,43.40
2023-04-04T11:31:45.844Z,43.90
2023-04-04T11:34:37.410Z,42.70
2023-04-04T11:37:20.126Z,43.80
2023-04-04T11:39:57.389Z,44.00
2023-04-04T11:42:33.920Z,44.70
2023-04-04T11:45:07.218Z,44.80
2023-04-04T11:47:34.955Z,44.00
2023-04-04T11:50:09.608Z,43.00
2023-04-04T11:52:38.476Z,43.60
2023-04-04T11:55:24.345Z,43.20
2023-04-04T11:57:53.646Z,43.10
2023-04-04T12:00:41.778Z,43.60
2023-04-04T12:03:11.723Z,40.50
2023-04-04T12:05:42.224Z,40.50
2023-04-04T12:08:11.634Z,38.50
2023-04-04T12:10:40.790Z,39.30
2023-04-04T12:13:09.806Z,39.80
2023-04-04T12:15:38.217Z,39.50
2023-04-04T12:18:09.892Z,38.50
2023-04-04T12:20:41.615Z,39.20
2023-04-04T12:23:10.233Z,38.70
2023-04-04T12:25:40.405Z,37.60
2023-04-04T12:28:08.871Z,36.80
2023-04-04T12:30:36.947Z,36.80
2023-04-04T12:33:05.479Z,36.80
2023-04-04T12:35:33.176Z,37.20
2023-04-04T12:38:03.173Z,36.50
2023-04-04T12:40:37.508Z,37.00
2023-04-04T12:43:09.464Z,37.50
2023-04-04T12:45:39.181Z,36.60
2023-04-04T12:48:15.589Z,35.00
2023-04-04T12:50:51.265Z,35.50
2023-04-04T12:53:30.055Z,35.10
2023-04-04T12:56:04.734Z,34.90
2023-04-04T12:58:34.295Z,32.10
2023-04-04T13:01:03.912Z,33.20
2023-04-04T13:03:31.659Z,32.60
2023-04-04T13:06:00.607Z,33.40
2023-04-04T13:08:28.349Z,33.40
2023-04-04T13:11:00.264Z,34.30
2023-04-04T13:13:37.000Z,34.50
2023-04-04T13:16:09.811Z,34.00
2023-04-04T13:18:45.424Z,32.50
2023-04-04T13:21:13.637Z,32.70
2023-04-04T13:23:41.968Z,32.70
2023-04-04T13:26:10.843Z,30.00
2023-04-04T13:28:39.216Z,29.90
2023-04-04T13:31:08.588Z,30.60
2023-04-04T13:33:37.125Z,31.20
2023-04-04T13:36:05.208Z,30.20
2023-04-04T13:38:32.878Z,29.00
2023-04-04T13:41:01.003Z,29.20
2023-04-04T13:43:28.745Z,29.40
2023-04-04T13:45:56.475Z,30.00
2023-04-04T13:48:24.434Z,28.60
2023-04-04T13:50:53.228Z,29.20
2023-04-04T13:53:21.099Z,28.20
2023-04-04T13:58:20.558Z,28.90
2023-04-04T14:00:48.944Z,29.10
2023-04-04T14:03:17.750Z,28.60
2023-04-04T14:05:45.794Z,29.20
2023-04-04T14:08:14.625Z,28.60
2023-04-04T14:10:42.233Z,29.10
2023-04-04T14:13:09.846Z,28.80
2023-04-04T14:15:37.518Z,28.70
2023-04-04T14:18:05.237Z,28.00
2023-04-04T14:20:34.004Z,28.50
2023-04-04T14:23:02.658Z,28.60
2023-04-04T14:25:30.705Z,28.50
2023-04-04T14:27:58.393Z,28.10
2023-04-04T14:30:25.934Z,28.50
2023-04-04T14:32:54.214Z,28.20
2023-04-04T14:35:21.824Z,27.90
2023-04-04T14:37:49.993Z,26.00
2023-04-04T14:40:18.022Z,26.30
2023-04-04T14:42:45.770Z,27.00
2023-04-04T14:45:14.588Z,27.60
2023-04-04T14:47:42.336Z,27.90
2023-04-04T14:50:10.298Z,27.50
2023-04-04T14:52:38.013Z,28.20
2023-04-04T14:55:07.483Z,28.40
2023-04-04T14:57:42.849Z,28.20
2023-04-04T15:00:24.001Z,27.40
2023-04-04T15:02:52.501Z,26.50
2023-04-04T15:05:20.128Z,26.70
2023-04-04T15:07:49.904Z,27.50
2023-04-04T15:10:17.540Z,28.00
2023-04-04T15:12:45.117Z,28.40
2023-04-04T15:15:13.427Z,28.10
2023-04-04T15:17:41.813Z,27.50
2023-04-04T15:20:09.891Z,27.50
2023-04-04T15:22:38.711Z,28.30
2023-04-04T15:25:08.211Z,28.80
2023-04-04T15:27:35.987Z,28.90
2023-04-04T15:30:04.296Z,28.80
2023-04-04T15:32:31.939Z,30.00
2023-04-04T15:34:59.516Z,30.20
2023-04-04T15:37:27.076Z,29.50
2023-04-04T15:39:54.750Z,28.90
2023-04-04T15:42:22.458Z,28.90
2023-04-04T15:44:50.261Z,28.70
2023-04-04T15:47:17.908Z,28.90
2023-04-04T15:49:45.401Z,29.40
2023-04-04T15:52:12.964Z,30.00
2023-04-04T15:54:40.499Z,30.90
2023-04-04T15:57:08.158Z,30.40
2023-04-04T15:59:36.276Z,31.00
2023-04-04T16:02:07.011Z,32.00
2023-04-04T16:04:36.065Z,33.10
2023-04-04T16:07:03.592Z,33.40
2023-04-04T16:09:31.352Z,33.20
2023-04-04T16:11:59.156Z,34.20
2023-04-04T16:14:26.764Z,35.00
2023-04-04T16:16:54.365Z,35.30
2023-04-04T16:19:22.182Z,35.10
2023-04-04T16:21:49.729Z,35.60
2023-04-04T16:24:17.356Z,35.80
2023-04-04T16:26:48.896Z,35.40
2023-04-04T16:29:18.514Z,35.10
2023-04-04T16:31:46.473Z,35.50
2023-04-04T16:34:14.456Z,35.40
2023-04-04T16:36:42.218Z,35.40
2023-04-04T16:39:09.993Z,34.90
2023-04-04T16:41:40.804Z,35.80
2023-04-04T16:44:08.492Z,36.00
2023-04-04T16:46:36.644Z,36.20
2023-04-04T16:49:04.408Z,36.20
2023-04-04T16:51:32.211Z,37.00
2023-04-04T16:53:59.973Z,37.20
2023-04-04T16:56:27.512Z,37.30
2023-04-04T16:58:55.210Z,37.30
2023-04-04T17:01:23.127Z,37.90
2023-04-04T17:03:50.889Z,38.00
2023-04-04T17:06:18.564Z,38.40
2023-04-04T17:08:46.725Z,39.00
2023-04-04T17:11:14.463Z,39.60
2023-04-04T17:13:42.576Z,39.60
2023-04-04T17:16:10.147Z,39.70
2023-04-04T17:18:37.884Z,39.90
2023-04-04T17:21:05.608Z,40.70
2023-04-04T17:23:33.793Z,41.10
2023-04-04T17:26:01.390Z,42.30
2023-04-04T17:28:29.012Z,43.70
2023-04-04T17:30:58.285Z,44.30
2023-04-04T17:33:27.410Z,45.00
2023-04-04T17:35:55.026Z,45.80
2023-04-04T17:38:22.639Z,46.20
2023-04-04T17:40:50.573Z,47.20
2023-04-04T17:43:18.315Z,48.00
2023-04-04T17:45:46.105Z,48.00
2023-04-04T17:48:20.333Z,48.40
2023-04-04T17:50:50.347Z,49.10
2023-04-04T17:53:18.075Z,49.90
2023-04-04T17:55:46.082Z,50.10
2023-04-04T17:58:15.522Z,50.40
2023-04-04T18:00:45.114Z,51.00
2023-04-04T18:03:14.781Z,51.30
2023-04-04T18:05:43.292Z,51.40
2023-04-04T18:08:11.706Z,51.40
2023-04-04T18:10:40.843Z,52.00
2023-04-04T18:13:10.428Z,52.30
2023-04-04T18:15:39.177Z,52.60
2023-04-04T18:18:08.609Z,52.30
2023-04-04T18:20:37.890Z,52.50
2023-04-04T18:23:06.878Z,53.10
2023-04-04T18:25:35.655Z,53.10
2023-04-04T18:28:04.329Z,53.20
2023-04-04T18:30:35.698Z,53.80
2023-04-04T18:33:04.889Z,53.80
2023-04-04T18:35:33.862Z,54.10
2023-04-04T18:38:04.105Z,53.80
2023-04-04T18:40:32.988Z,54.40
2023-04-04T18:43:04.567Z,54.20
2023-04-04T18:45:39.345Z,54.70
2023-04-04T18:48:08.817Z,54.60
2023-04-04T18:50:37.106Z,55.20
2023-04-04T18:53:05.282Z,55.10
2023-04-04T18:55:33.138Z,55.60
2023-04-04T18:58:00.809Z,55.70
2023-04-04T19:00:28.426Z,56.00
2023-04-04T19:02:57.171Z,56.60
2023-04-04T19:05:25.202Z,56.70
2023-04-04T19:07:57.034Z,56.50
2023-04-04T19:10:24.658Z,56.90
2023-04-04T19:12:52.370Z,57.00
2023-04-04T19:15:20.559Z,56.90
2023-04-04T19:20:18.225Z,56.80
2023-04-04T19:22:46.906Z,57.60
2023-04-04T19:25:15.920Z,57.60
2023-04-04T19:27:44.627Z,57.80
2023-04-04T19:30:34.271Z,57.50
2023-04-04T19:33:03.890Z,58.30
2023-04-04T19:35:49.173Z,59.00
2023-04-04T19:38:29.589Z,58.30
2023-04-04T19:41:12.271Z,59.10
2023-04-04T19:43:43.602Z,59.30
2023-04-04T19:46:16.712Z,59.20
2023-04-04T19:48:49.733Z,58.90
2023-04-04T19:51:18.045Z,59.40
2023-04-04T19:53:50.770Z,59.60
2023-04-04T19:56:19.698Z,59.50
2023-04-04T19:58:58.398Z,59.60
2023-04-04T20:01:28.418Z,59.80
2023-04-04T20:03:57.246Z,60.50
2023-04-04T20:06:31.516Z,61.00
2023-04-04T20:09:01.673Z,60.70
2023-04-04T20:11:31.618Z,61.40
2023-04-04T20:14:01.464Z,61.40
2023-04-04T20:16:30.598Z,61.60
2023-04-04T20:19:01.268Z,61.40
2023-04-04T20:21:34.365Z,62.30
2023-04-04T20:24:06.006Z,62.60
2023-04-04T20:26:44.363Z,63.00
2023-04-04T20:29:16.757Z,63.00
2023-04-04T20:31:56.547Z,63.80
2023-04-04T20:34:42.811Z,64.10
2023-04-04T20:37:22.322Z,64.50
2023-04-04T20:39:59.327Z,64.50
2023-04-04T20:42:31.447Z,65.60
2023-04-04T20:45:14.234Z,66.10
2023-04-04T20:47:54.195Z,66.40
2023-04-04T20:50:27.557Z,67.00
2023-04-04T20:53:05.444Z,67.70
2023-04-04T20:55:36.034Z,68.30
2023-04-04T20:58:10.386Z,68.50
2023-04-04T21:00:43.291Z,69.20
2023-04-04T21:03:31.061Z,69.60
2023-04-04T21:06:09.673Z,70.20
2023-04-04T21:08:43.593Z,70.10
2023-04-04T21:11:12.664Z,70.70
2023-04-04T21:13:42.318Z,70.00
2023-04-04T21:16:12.212Z,70.60
2023-04-04T21:18:41.692Z,69.90
2023-04-04T21:21:16.967Z,70.50
2023-04-04T21:23:47.231Z,70.70
2023-04-04T21:26:19.732Z,71.10
2023-04-04T21:28:47.475Z,70.90
2023-04-04T21:31:16.727Z,71.90
2023-04-04T21:33:45.505Z,71.90
2023-04-04T21:36:31.562Z,72.30
2023-04-04T21:39:07.399Z,72.10
2023-04-04T21:41:35.878Z,72.90
2023-04-04T21:44:06.586Z,72.30
2023-04-04T21:46:36.509Z,73.10
2023-04-04T21:49:05.156Z,72.50
2023-04-04T21:51:33.470Z,73.50
2023-04-04T21:54:01.630Z,74.40
2023-04-04T21:56:31.666Z,75.30
2023-04-04T21:59:04.222Z,74.30
2023-04-04T22:01:32.246Z,75.00
2023-04-04T22:04:00.133Z,75.70
2023-04-04T22:06:28.543Z,76.60
2023-04-04T22:08:58.757Z,76.20
2023-04-04T22:11:27.323Z,77.30
2023-04-04T22:14:07.455Z,77.90
2023-04-04T22:16:43.044Z,78.90
2023-04-04T22:19:11.516Z,79.70
2023-04-04T22:21:46.788Z,80.50
2023-04-04T22:24:15.933Z,81.20
2023-04-04T22:26:45.742Z,81.70
2023-04-04T22:29:13.729Z,81.30
2023-04-04T22:31:41.561Z,82.10
2023-04-04T22:34:09.630Z,83.10
2023-04-04T22:36:38.663Z,84.00
2023-04-04T22:39:06.375Z,84.70
2023-04-04T22:41:33.889Z,85.30
2023-04-04T22:44:01.529Z,86.40
2023-04-04T22:46:29.905Z,87.10
2023-04-04T22:49:06.082Z,87.30
2023-04-04T22:51:43.089Z,87.90
2023-04-04T22:54:17.434Z,87.50
2023-04-04T22:56:45.681Z,87.20
2023-04-04T22:59:13.558Z,87.00
2023-04-04T23:01:41.501Z,87.30
2023-04-04T23:04:09.266Z,88.20
2023-04-04T23:06:38.573Z,88.60
2023-04-04T23:09:07.924Z,88.70
2023-04-04T23:11:36.691Z,89.40
2023-04-04T23:14:09.497Z,89.80
2023-04-04T23:16:37.785Z,90.00
2023-04-04T23:19:05.391Z,90.00
2023-04-04T23:21:33.066Z,90.50
2023-04-04T23:24:00.775Z,90.60
2023-04-04T23:26:28.519Z,91.00
2023-04-04T23:28:57.085Z,91.20
2023-04-04T23:31:26.017Z,91.60
2023-04-04T23:33:54.336Z,91.70
2023-04-04T23:36:22.380Z,91.90
2023-04-04T23:38:50.098Z,92.10
2023-04-04T23:41:18.373Z,92.10
2023-04-04T23:43:46.162Z,92.40
2023-04-04T23:46:14.420Z,92.40
2023-04-04T23:48:42.145Z,92.50
2023-04-04T23:51:10.983Z,92.90
2023-04-04T23:53:39.311Z,93.10
2023-04-04T23:56:07.353Z,93.50
2023-04-04T23:58:35.002Z,93.80
